Date,TemperatureHighF,TemperatureAvgF,TemperatureLowF,DewpointHighF,DewpointAvgF,DewpointLowF,HumidityHigh,HumidityAvg,HumidityLow,PressureMaxIn,PressureMinIn,WindSpeedMaxMPH,WindSpeedAvgMPH,GustSpeedMaxMPH,PrecipitationSumIn
2013-2-1,59.4,45.1,30.2,38.8,28.4,18.6,65,53,37,30.41,30.17,5,2,11,0.00
2013-2-2,64.8,52.6,44.0,45.5,40.5,37.4,87,65,39,30.27,30.16,5,3,9,0.00
2013-2-3,68.3,60.8,56.6,31.3,30.0,27.2,38,32,22,30.12,30.00,5,3,7,0.00
2013-2-4,73.2,61.0,53.0,57.1,50.2,30.9,91,69,38,30.00,29.77,7,3,11,0.01
2013-2-5,68.7,61.1,56.3,60.7,57.8,54.6,97,89,69,30.01,29.86,4,1,7,0.01
2013-2-6,74.8,63.5,56.6,62.3,57.6,54.6,98,83,51,30.01,29.84,7,3,12,0.01
2013-2-7,79.3,64.1,54.3,59.4,53.9,41.2,95,73,29,30.10,29.80,10,5,16,0.00
2013-2-8,63.7,52.1,42.2,45.2,33.1,20.2,78,53,19,30.26,30.10,6,2,10,0.00
2013-2-9,59.2,50.5,46.1,58.3,47.1,35.1,98,88,65,30.14,29.75,5,3,13,0.04
2013-2-10,67.2,58.2,46.6,64.1,37.4,24.2,98,52,20,30.02,29.65,12,2,19,0.72
2013-2-11,54.6,50.8,47.7,41.2,35.6,29.4,77,57,41,30.16,29.99,7,3,10,0.00
2013-2-12,51.1,46.9,41.0,47.6,43.9,36.5,96,89,78,30.07,29.86,5,2,10,0.27
2013-2-13,48.8,42.7,39.3,37.4,36.5,34.5,87,79,60,30.10,30.05,5,2,7,0.00
2013-2-14,68.4,52.5,37.4,41.0,37.2,33.9,89,60,30,30.12,30.00,6,2,10,0.00
2013-2-15,52.1,46.2,33.6,38.9,28.7,18.2,68,51,32,30.41,30.09,7,4,16,0.00
2013-2-16,57.6,43.0,28.2,29.6,25.8,22.4,82,53,30,30.44,30.19,4,1,8,0.00
2013-2-17,70.8,54.4,36.7,46.4,34.1,28.2,80,51,21,30.19,29.91,12,6,18,0.00
2013-2-18,77.6,61.8,50.7,56.7,44.5,30.7,84,57,23,30.14,29.76,14,6,16,0.00
2013-2-19,60.4,51.3,39.3,37.2,27.4,19.4,68,42,21,30.33,30.12,6,2,13,0.01
2013-2-20,51.4,44.7,41.9,39.9,37.5,32.7,87,76,49,30.18,29.78,7,4,13,0.15
2013-2-21,68.5,53.5,42.6,50.3,39.2,24.0,95,65,19,29.94,29.61,7,4,13,0.21
2013-2-22,48.8,39.1,30.2,37.9,26.8,22.0,82,62,42,30.17,29.93,6,3,13,0.00
2013-2-23,55.6,42.5,29.6,31.4,28.4,24.6,82,59,38,30.13,29.94,5,1,13,0.00
2013-2-24,70.2,52.4,32.7,45.8,37.5,28.3,86,60,38,29.95,29.69,7,2,13,0.00
2013-2-25,41.0,40.4,39.7,33.3,32.7,32.2,75,74,72,29.71,29.59,7,6,14,0.04
2013-2-26,59.0,46.0,38.5,33.6,31.9,30.1,76,60,35,29.92,29.71,6,3,15,0.00
2013-2-27,56.3,45.5,35.8,33.1,27.7,18.4,86,54,24,30.26,29.89,7,3,13,0.00
2013-2-28,58.5,46.0,36.0,29.8,26.8,23.3,71,50,26,30.33,30.20,7,3,12,0.00